Deo Volente — PHFJ — position and weather

sailwx.info

Track history (hours):
 
Tides and Currents Weather Stations Pressure Air Temp Water Temp Dewpoint Dewpoint Depression Visibility Wind Speed Wind Dir Waves Ship Positions

Deo Volente

Last reported at 2017-May-26 11:31 UTC. Time now 2017-May-29 02:01 UTC.
Position N 37°49' E 016°03'.

Length 105 m; draft 4.9 m.

Type: Cargo ship. MMSI: 246518000.

Date/timePositionNaut miles runAvg speedWind from/ knotsBaromVisibWave heightAir tempDewpointWater temp
2017-May-26 11:31N 37°49' E 016°03'917.0
2017-May-26 11:00N 37°52' E 015°53'816.7
2017-May-26 10:30N 37°54' E 015°43'815.6
2017-May-26 10:01N 37°60' E 015°36'816.8
2017-May-26 09:31N 38°08' E 015°35'816.4
2017-May-26 09:00N 38°16' E 015°40'816.0
2017-May-26 08:30N 38°23' E 015°35'917.8
2017-May-26 08:00N 38°29' E 015°27'917.8
2017-May-26 07:30N 38°36' E 015°20'917.7
2017-May-26 07:00N 38°43' E 015°12'25713.8
2017-May-25 12:27N 42°06' E 011°47'0 0.0
2017-May-25 11:51N 42°06' E 011°47'0 0.0
2017-May-25 11:29N 42°06' E 011°47'0 0.0
2017-May-25 10:54N 42°06' E 011°47'0 0.0
2017-May-25 10:29N 42°06' E 011°47'0 0.0
2017-May-25 10:00N 42°06' E 011°47'0 0.0
2017-May-25 08:23N 42°06' E 011°47'0 0.0
2017-May-25 08:00N 42°06' E 011°47'0 0.0
2017-May-25 07:26N 42°06' E 011°47'0 0.0
2017-May-25 06:30N 42°06' E 011°47'0 0.0
2017-May-25 05:52N 42°06' E 011°47'0 0.0
2017-May-25 05:25N 42°06' E 011°47'1 2.3
2017-May-25 04:47N 42°07' E 011°45'2 4.6
2017-May-25 04:15N 42°05' E 011°42'7 8.8
2017-May-25 03:26N 42°09' E 011°34'713.3
2017-May-25 02:56N 42°12' E 011°26'813.3
2017-May-25 02:21N 42°16' E 011°17'513.4
2017-May-25 01:58N 42°19' E 011°11'714.0
2017-May-25 01:30N 42°22' E 011°03'713.9
2017-May-25 00:58N 42°25' E 010°54'613.6
2017-May-25 00:30N 42°28' E 010°47'713.4
2017-May-24 23:57N 42°31' E 010°37'713.2
2017-May-24 23:27N 42°33' E 010°29'713.1
2017-May-24 22:54N 42°36' E 010°20'613.6
2017-May-24 22:28N 42°38' E 010°13'613.3
2017-May-24 21:59N 42°41' E 010°05'813.4
2017-May-24 21:24N 42°45' E 009°56'513.3
2017-May-24 21:00N 42°48' E 009°50'912.7
2017-May-24 20:20N 42°52' E 009°40'412.8
2017-May-24 20:00N 42°56' E 009°38'613.0
2017-May-24 19:30N 43°02' E 009°34'1012.8
2017-May-24 18:45N 43°08' E 009°23'313.4
2017-May-24 18:30N 43°09' E 009°19'713.7
2017-May-24 18:00N 43°11' E 009°10'713.8
2017-May-24 17:30N 43°13' E 009°01'713.5
2017-May-24 17:00N 43°14' E 008°52'713.3
2017-May-24 16:29N 43°16' E 008°43'4 9.1
2017-May-24 16:00N 43°18' E 008°37'0 0.6
2017-May-24 15:30N 43°18' E 008°37'1 1.6
2017-May-24 15:00N 43°18' E 008°36'713.0
2017-May-24 14:31N 43°20' E 008°28'1414.2
2017-May-24 13:30N 43°26' E 008°10'714.7
2017-May-24 13:01N 43°28' E 008°00'815.1
2017-May-24 12:31N 43°31' E 007°51'714.2
2017-May-24 12:01N 43°34' E 007°42'714.8
2017-May-24 11:31N 43°37' E 007°32'714.4
2017-May-24 11:01N 43°39' E 007°23'5 9.2
2017-May-24 10:30N 43°42' E 007°17'0 0.0
2017-May-24 10:01N 43°42' E 007°17'0 0.0
2017-May-24 09:30N 43°42' E 007°17'0 0.0
2017-May-24 08:57N 43°42' E 007°17'0 0.0
2017-May-24 08:28N 43°42' E 007°17'4 9.4
2017-May-24 08:00N 43°38' E 007°15'816.8
2017-May-24 07:30N 43°30' E 007°09'816.6
2017-May-24 07:00N 43°24' E 007°01'1416.5
2017-May-24 06:08N 43°13' E 006°48'316.4
2017-May-24 05:58N 43°11' E 006°46'4316.1
2017-May-24 03:18N 42°47' E 005°58'616.3
2017-May-24 02:57N 42°44' E 005°51'816.6
2017-May-24 02:28N 42°40' E 005°41'1516.7
2017-May-24 01:36N 42°33' E 005°24'116.9
2017-May-24 01:31N 42°32' E 005°22'1217.0
2017-May-24 00:49N 42°27' E 005°08'716.9
2017-May-24 00:25N 42°24' E 004°60'4616.9
2017-May-23 21:41N 42°02' E 004°05'517.6
2017-May-23 21:25N 41°60' E 003°59'717.5
2017-May-23 21:00N 41°56' E 003°51'917.2
2017-May-23 20:30N 41°52' E 003°40'917.3
2017-May-23 20:00N 41°48' E 003°30'817.3
2017-May-23 19:31N 41°44' E 003°20'917.0
2017-May-23 19:00N 41°40' E 003°10'817.0
2017-May-23 18:30N 41°36' E 003°00'2516.9
2017-May-23 17:01N 41°24' E 002°31'013.7
2017-May-23 17:00N 41°24' E 002°30'816.7
2017-May-23 16:30N 41°19' E 002°21'815.7
2017-May-23 16:00N 41°17' E 002°11'4 8.6
2017-May-23 15:30N 41°21' E 002°10'0 0.0
2017-May-23 14:35N 41°21' E 002°10'0 0.0
2017-May-23 13:55N 41°21' E 002°10'0 0.0
2017-May-23 12:53N 41°21' E 002°10'0 0.0
2017-May-23 12:30N 41°21' E 002°10'0 0.0
2017-May-23 12:00N 41°21' E 002°10'0 0.0
2017-May-23 11:30N 41°21' E 002°10'0 0.0
2017-May-23 10:59N 41°21' E 002°10'0 0.0
2017-May-23 10:30N 41°21' E 002°10'0 0.0
2017-May-23 09:54N 41°21' E 002°10'0 0.0
2017-May-23 09:30N 41°21' E 002°10'0 0.0
2017-May-23 09:00N 41°21' E 002°10'0 0.0
2017-May-23 08:30N 41°21' E 002°10'0 0.0
2017-May-23 08:00N 41°21' E 002°10'0 0.0
2017-May-23 07:30N 41°21' E 002°10'0 0.0
2017-May-23 07:00N 41°21' E 002°10'0 0.0
2017-May-23 06:30N 41°21' E 002°10'0 0.0
2017-May-23 06:00N 41°21' E 002°10'0 0.0
2017-May-23 05:30N 41°21' E 002°10'0 0.0
2017-May-23 04:53N 41°21' E 002°10'0 0.0
2017-May-23 04:30N 41°21' E 002°10'0 0.0
2017-May-23 04:00N 41°21' E 002°10'0 0.0
2017-May-23 02:37N 41°21' E 002°10'0 0.0
2017-May-23 02:12N 41°21' E 002°10'0 0.0
2017-May-23 02:00N 41°21' E 002°10'0 0.0
2017-May-23 01:16N 41°21' E 002°10'0 0.0
2017-May-23 01:00N 41°21' E 002°10'3 5.1
2017-May-23 00:21N 41°18' E 002°11'2 7.1
2017-May-23 00:00N 41°15' E 002°11'612.1
2017-May-22 23:30N 41°09' E 002°11'815.7
2017-May-22 23:00N 41°01' E 002°11'815.9
2017-May-22 22:30N 40°54' E 002°12'815.9
2017-May-22 22:00N 40°46' E 002°14'816.0
2017-May-22 21:30N 40°38' E 002°14'816.0
2017-May-22 21:00N 40°30' E 002°14'815.8
2017-May-22 20:30N 40°22' E 002°14'815.6
2017-May-22 20:01N 40°14' E 002°14'815.4
2017-May-22 19:30N 40°06' E 002°15'815.7
2017-May-22 19:00N 39°59' E 002°15'815.9
2017-May-22 18:30N 39°50' E 002°15'816.2
2017-May-22 18:00N 39°42' E 002°16'916.4
2017-May-22 17:28N 39°34' E 002°17'816.6
2017-May-22 17:00N 39°29' E 002°24'714.1
2017-May-22 16:30N 39°27' E 002°33'714.1
2017-May-22 16:01N 39°33' E 002°39'1 2.0
2017-May-22 15:31N 39°34' E 002°38'0 0.0
2017-May-22 15:01N 39°34' E 002°38'0 0.0
2017-May-22 14:30N 39°34' E 002°38'0 0.0
2017-May-22 14:01N 39°34' E 002°38'0 0.0
2017-May-22 13:29N 39°34' E 002°38'0 0.0
2017-May-22 13:00N 39°34' E 002°38'0 0.0
2017-May-22 12:30N 39°34' E 002°38'0 0.0
2017-May-22 12:01N 39°34' E 002°38'0 0.0
2017-May-22 11:31N 39°34' E 002°38'0 0.0
2017-May-22 11:00N 39°34' E 002°38'0 0.0
2017-May-22 10:30N 39°34' E 002°38'0 0.0
2017-May-22 10:01N 39°34' E 002°38'0 0.0
2017-May-22 09:30N 39°34' E 002°38'0 0.0
2017-May-22 09:00N 39°34' E 002°38'0 0.0
2017-May-22 08:31N 39°34' E 002°38'0 0.0
2017-May-22 08:00N 39°34' E 002°38'0 0.0
2017-May-22 07:31N 39°34' E 002°38'0 0.0
2017-May-22 07:00N 39°34' E 002°38'0 0.0
2017-May-22 06:31N 39°34' E 002°38'0 0.0
2017-May-22 06:01N 39°34' E 002°38'0 0.0
2017-May-22 05:31N 39°34' E 002°38'0 0.0
2017-May-22 05:01N 39°34' E 002°38'0 0.0
2017-May-22 04:30N 39°34' E 002°38'0 0.0
2017-May-22 04:00N 39°34' E 002°38'0 0.0
2017-May-22 03:30N 39°34' E 002°38'0 0.0
2017-May-22 03:00N 39°34' E 002°38'0 0.0
2017-May-22 02:31N 39°34' E 002°38'0 0.0
2017-May-22 02:00N 39°34' E 002°38'0 0.0
2017-May-22 01:30N 39°34' E 002°38'0 0.0
2017-May-22 01:00N 39°34' E 002°38'0 0.0
2017-May-22 00:30N 39°34' E 002°38'0 0.0
2017-May-22 00:00N 39°34' E 002°38'0 0.0
2017-May-21 23:30N 39°34' E 002°38'0 0.0
2017-May-21 23:00N 39°34' E 002°38'0 0.0
2017-May-21 22:30N 39°34' E 002°38'0 0.0
2017-May-21 22:00N 39°34' E 002°38'0 0.0
2017-May-21 21:30N 39°34' E 002°38'0 0.0
2017-May-21 21:01N 39°34' E 002°38'0 0.0
2017-May-21 20:30N 39°34' E 002°38'0 0.0
2017-May-21 20:00N 39°34' E 002°38'0 0.0
2017-May-21 19:30N 39°34' E 002°38'0 0.0
2017-May-21 19:00N 39°34' E 002°38'0 0.0
2017-May-21 18:30N 39°34' E 002°38'0 0.0
2017-May-21 18:00N 39°34' E 002°38'1 1.7
2017-May-21 17:30N 39°33' E 002°39'612.6
2017-May-21 17:00N 39°28' E 002°34'815.1
2017-May-21 16:30N 39°22' E 002°28'815.4
2017-May-21 16:00N 39°16' E 002°21'815.5
2017-May-21 15:30N 39°10' E 002°15'815.2
2017-May-21 15:00N 39°05' E 002°09'815.4
2017-May-21 14:30N 38°59' E 002°02'1615.5
2017-May-21 13:30N 38°47' E 001°48'815.3
2017-May-21 12:59N 38°41' E 001°42'815.4
2017-May-21 12:30N 38°36' E 001°35'815.6
2017-May-21 11:59N 38°31' E 001°27'915.7
2017-May-21 11:26N 38°26' E 001°18'715.9
2017-May-21 11:00N 38°22' E 001°11'1615.6
2017-May-21 09:59N 38°13' E 000°54'915.4
2017-May-21 09:25N 38°08' E 000°45'5814.8
2017-May-21 05:31N 37°33' W 000°13'1913.7
2017-May-21 04:07N 37°22' W 000°33'213.4
2017-May-21 03:58N 37°21' W 000°35'613.4
2017-May-21 03:30N 37°17' W 000°41'10313.2
2017-May-20 19:44N 36°21' W 002°29'13314.4
2017-May-20 10:33N 36°06' W 005°12'114.7
2017-May-20 10:30N 36°06' W 005°13'713.9
2017-May-20 10:00N 36°05' W 005°21'4 1.0
2017-May-20 06:03N 36°09' W 005°22'0 0.4
2017-May-20 06:00N 36°09' W 005°22'0 0.0
2017-May-20 05:30N 36°09' W 005°22'0 0.0
2017-May-20 05:00N 36°09' W 005°22'0 0.0
2017-May-20 04:30N 36°09' W 005°22'0 0.0
2017-May-20 04:00N 36°09' W 005°22'0 0.0
2017-May-20 03:30N 36°09' W 005°22'0 0.0
2017-May-20 03:00N 36°09' W 005°22'0 0.0
2017-May-20 02:30N 36°09' W 005°22'0 0.0
2017-May-20 02:00N 36°09' W 005°22'0 0.0
2017-May-20 01:30N 36°09' W 005°22'0 0.0
2017-May-20 01:00N 36°09' W 005°22'0 0.0
2017-May-20 00:30N 36°09' W 005°22'0 0.0
2017-May-20 00:00N 36°09' W 005°22'0 0.0
2017-May-19 23:30N 36°09' W 005°22'0 0.0
2017-May-19 23:00N 36°09' W 005°22'0 0.0
2017-May-19 22:30N 36°09' W 005°22'0 0.0
2017-May-19 22:00N 36°09' W 005°22'0 0.0
2017-May-19 21:30N 36°09' W 005°22'0 0.0
2017-May-19 21:00N 36°09' W 005°22'0 0.0
2017-May-19 20:30N 36°09' W 005°22'0 0.0
2017-May-19 20:00N 36°09' W 005°22'0 0.0
2017-May-19 19:30N 36°09' W 005°22'0 0.0
2017-May-19 18:58N 36°09' W 005°22'0 0.0
2017-May-19 15:17N 36°09' W 005°22'0 0.0
2017-May-19 10:26N 36°09' W 005°22'0 0.0
2017-May-19 10:00N 36°09' W 005°22'0 0.0
2017-May-19 09:30N 36°09' W 005°22'0 0.0
2017-May-19 09:00N 36°09' W 005°22'0 0.0
2017-May-19 08:30N 36°09' W 005°22'0 0.0
2017-May-19 08:00N 36°09' W 005°22'0 0.0
2017-May-19 07:30N 36°09' W 005°22'0 0.0
2017-May-19 07:00N 36°09' W 005°22'0 0.0
2017-May-19 06:30N 36°09' W 005°22'0 0.0
2017-May-19 05:58N 36°09' W 005°22'0 0.0
2017-May-19 05:30N 36°09' W 005°22'0 0.0
2017-May-19 05:00N 36°09' W 005°22'2 3.7
2017-May-19 04:30N 36°07' W 005°23'2 3.7
2017-May-19 04:00N 36°05' W 005°22'4 8.9
2017-May-19 03:30N 36°01' W 005°23'612.6
2017-May-19 03:00N 35°58' W 005°29'25611.9
2017-May-18 05:25N 38°18' W 009°58'814.9
2017-May-18 04:53N 38°26' W 010°00'715.3
2017-May-18 04:27N 38°33' W 010°02'714.9
2017-May-18 04:00N 38°39' W 010°04'715.3
2017-May-18 03:30N 38°47' W 010°05'815.2
2017-May-18 03:00N 38°54' W 010°04'815.3
2017-May-18 02:30N 39°02' W 010°01'815.4
2017-May-18 02:00N 39°09' W 009°59'815.4
2017-May-18 01:30N 39°17' W 009°56'  
Track history (hours):
 
Tides and Currents Weather Stations Pressure Air Temp Water Temp Dewpoint Dewpoint Depression Visibility Wind Speed Wind Dir Waves Ship Positions

Deo Volente

Last reported at 2017-May-26 11:31 UTC. Time now 2017-May-29 02:01 UTC.
Position N 37°49' E 016°03'.

Length 105 m; draft 4.9 m.

Type: Cargo ship. MMSI: 246518000.

Date/timePositionNaut miles runAvg speedWind from/ knotsBaromVisibWave heightAir tempDewpointWater temp
2017-May-26 11:31N 37°49' E 016°03'917.0
2017-May-26 11:00N 37°52' E 015°53'816.7
2017-May-26 10:30N 37°54' E 015°43'815.6
2017-May-26 10:01N 37°60' E 015°36'816.8
2017-May-26 09:31N 38°08' E 015°35'816.4
2017-May-26 09:00N 38°16' E 015°40'816.0
2017-May-26 08:30N 38°23' E 015°35'917.8
2017-May-26 08:00N 38°29' E 015°27'917.8
2017-May-26 07:30N 38°36' E 015°20'917.7
2017-May-26 07:00N 38°43' E 015°12'25713.8
2017-May-25 12:27N 42°06' E 011°47'0 0.0
2017-May-25 11:51N 42°06' E 011°47'0 0.0
2017-May-25 11:29N 42°06' E 011°47'0 0.0
2017-May-25 10:54N 42°06' E 011°47'0 0.0
2017-May-25 10:29N 42°06' E 011°47'0 0.0
2017-May-25 10:00N 42°06' E 011°47'0 0.0
2017-May-25 08:23N 42°06' E 011°47'0 0.0
2017-May-25 08:00N 42°06' E 011°47'0 0.0
2017-May-25 07:26N 42°06' E 011°47'0 0.0
2017-May-25 06:30N 42°06' E 011°47'0 0.0
2017-May-25 05:52N 42°06' E 011°47'0 0.0
2017-May-25 05:25N 42°06' E 011°47'1 2.3
2017-May-25 04:47N 42°07' E 011°45'2 4.6
2017-May-25 04:15N 42°05' E 011°42'7 8.8
2017-May-25 03:26N 42°09' E 011°34'713.3
2017-May-25 02:56N 42°12' E 011°26'813.3
2017-May-25 02:21N 42°16' E 011°17'513.4
2017-May-25 01:58N 42°19' E 011°11'714.0
2017-May-25 01:30N 42°22' E 011°03'713.9
2017-May-25 00:58N 42°25' E 010°54'613.6
2017-May-25 00:30N 42°28' E 010°47'713.4
2017-May-24 23:57N 42°31' E 010°37'713.2
2017-May-24 23:27N 42°33' E 010°29'713.1
2017-May-24 22:54N 42°36' E 010°20'613.6
2017-May-24 22:28N 42°38' E 010°13'613.3
2017-May-24 21:59N 42°41' E 010°05'813.4
2017-May-24 21:24N 42°45' E 009°56'513.3
2017-May-24 21:00N 42°48' E 009°50'912.7
2017-May-24 20:20N 42°52' E 009°40'412.8
2017-May-24 20:00N 42°56' E 009°38'613.0
2017-May-24 19:30N 43°02' E 009°34'1012.8
2017-May-24 18:45N 43°08' E 009°23'313.4
2017-May-24 18:30N 43°09' E 009°19'713.7
2017-May-24 18:00N 43°11' E 009°10'713.8
2017-May-24 17:30N 43°13' E 009°01'713.5
2017-May-24 17:00N 43°14' E 008°52'713.3
2017-May-24 16:29N 43°16' E 008°43'4 9.1
2017-May-24 16:00N 43°18' E 008°37'0 0.6
2017-May-24 15:30N 43°18' E 008°37'1 1.6
2017-May-24 15:00N 43°18' E 008°36'713.0
2017-May-24 14:31N 43°20' E 008°28'1414.2
2017-May-24 13:30N 43°26' E 008°10'714.7
2017-May-24 13:01N 43°28' E 008°00'815.1
2017-May-24 12:31N 43°31' E 007°51'714.2
2017-May-24 12:01N 43°34' E 007°42'714.8
2017-May-24 11:31N 43°37' E 007°32'714.4
2017-May-24 11:01N 43°39' E 007°23'5 9.2
2017-May-24 10:30N 43°42' E 007°17'0 0.0
2017-May-24 10:01N 43°42' E 007°17'0 0.0
2017-May-24 09:30N 43°42' E 007°17'0 0.0
2017-May-24 08:57N 43°42' E 007°17'0 0.0
2017-May-24 08:28N 43°42' E 007°17'4 9.4
2017-May-24 08:00N 43°38' E 007°15'816.8
2017-May-24 07:30N 43°30' E 007°09'816.6
2017-May-24 07:00N 43°24' E 007°01'1416.5
2017-May-24 06:08N 43°13' E 006°48'316.4
2017-May-24 05:58N 43°11' E 006°46'4316.1
2017-May-24 03:18N 42°47' E 005°58'616.3
2017-May-24 02:57N 42°44' E 005°51'816.6
2017-May-24 02:28N 42°40' E 005°41'1516.7
2017-May-24 01:36N 42°33' E 005°24'116.9
2017-May-24 01:31N 42°32' E 005°22'1217.0
2017-May-24 00:49N 42°27' E 005°08'716.9
2017-May-24 00:25N 42°24' E 004°60'4616.9
2017-May-23 21:41N 42°02' E 004°05'517.6
2017-May-23 21:25N 41°60' E 003°59'717.5
2017-May-23 21:00N 41°56' E 003°51'917.2
2017-May-23 20:30N 41°52' E 003°40'917.3
2017-May-23 20:00N 41°48' E 003°30'817.3
2017-May-23 19:31N 41°44' E 003°20'917.0
2017-May-23 19:00N 41°40' E 003°10'817.0
2017-May-23 18:30N 41°36' E 003°00'2516.9
2017-May-23 17:01N 41°24' E 002°31'013.7
2017-May-23 17:00N 41°24' E 002°30'816.7
2017-May-23 16:30N 41°19' E 002°21'815.7
2017-May-23 16:00N 41°17' E 002°11'4 8.6
2017-May-23 15:30N 41°21' E 002°10'0 0.0
2017-May-23 14:35N 41°21' E 002°10'0 0.0
2017-May-23 13:55N 41°21' E 002°10'0 0.0
2017-May-23 12:53N 41°21' E 002°10'0 0.0
2017-May-23 12:30N 41°21' E 002°10'0 0.0
2017-May-23 12:00N 41°21' E 002°10'0 0.0
2017-May-23 11:30N 41°21' E 002°10'0 0.0
2017-May-23 10:59N 41°21' E 002°10'0 0.0
2017-May-23 10:30N 41°21' E 002°10'0 0.0
2017-May-23 09:54N 41°21' E 002°10'0 0.0
2017-May-23 09:30N 41°21' E 002°10'0 0.0
2017-May-23 09:00N 41°21' E 002°10'0 0.0
2017-May-23 08:30N 41°21' E 002°10'0 0.0
2017-May-23 08:00N 41°21' E 002°10'0 0.0
2017-May-23 07:30N 41°21' E 002°10'0 0.0
2017-May-23 07:00N 41°21' E 002°10'0 0.0
2017-May-23 06:30N 41°21' E 002°10'0 0.0
2017-May-23 06:00N 41°21' E 002°10'0 0.0
2017-May-23 05:30N 41°21' E 002°10'0 0.0
2017-May-23 04:53N 41°21' E 002°10'0 0.0
2017-May-23 04:30N 41°21' E 002°10'0 0.0
2017-May-23 04:00N 41°21' E 002°10'0 0.0
2017-May-23 02:37N 41°21' E 002°10'0 0.0
2017-May-23 02:12N 41°21' E 002°10'0 0.0
2017-May-23 02:00N 41°21' E 002°10'0 0.0
2017-May-23 01:16N 41°21' E 002°10'0 0.0
2017-May-23 01:00N 41°21' E 002°10'3 5.1
2017-May-23 00:21N 41°18' E 002°11'2 7.1
2017-May-23 00:00N 41°15' E 002°11'612.1
2017-May-22 23:30N 41°09' E 002°11'815.7
2017-May-22 23:00N 41°01' E 002°11'815.9
2017-May-22 22:30N 40°54' E 002°12'815.9
2017-May-22 22:00N 40°46' E 002°14'816.0
2017-May-22 21:30N 40°38' E 002°14'816.0
2017-May-22 21:00N 40°30' E 002°14'815.8
2017-May-22 20:30N 40°22' E 002°14'815.6
2017-May-22 20:01N 40°14' E 002°14'815.4
2017-May-22 19:30N 40°06' E 002°15'815.7
2017-May-22 19:00N 39°59' E 002°15'815.9
2017-May-22 18:30N 39°50' E 002°15'816.2
2017-May-22 18:00N 39°42' E 002°16'916.4
2017-May-22 17:28N 39°34' E 002°17'816.6
2017-May-22 17:00N 39°29' E 002°24'714.1
2017-May-22 16:30N 39°27' E 002°33'714.1
2017-May-22 16:01N 39°33' E 002°39'1 2.0
2017-May-22 15:31N 39°34' E 002°38'0 0.0
2017-May-22 15:01N 39°34' E 002°38'0 0.0
2017-May-22 14:30N 39°34' E 002°38'0 0.0
2017-May-22 14:01N 39°34' E 002°38'0 0.0
2017-May-22 13:29N 39°34' E 002°38'0 0.0
2017-May-22 13:00N 39°34' E 002°38'0 0.0
2017-May-22 12:30N 39°34' E 002°38'0 0.0
2017-May-22 12:01N 39°34' E 002°38'0 0.0
2017-May-22 11:31N 39°34' E 002°38'0 0.0
2017-May-22 11:00N 39°34' E 002°38'0 0.0
2017-May-22 10:30N 39°34' E 002°38'0 0.0
2017-May-22 10:01N 39°34' E 002°38'0 0.0
2017-May-22 09:30N 39°34' E 002°38'0 0.0
2017-May-22 09:00N 39°34' E 002°38'0 0.0
2017-May-22 08:31N 39°34' E 002°38'0 0.0
2017-May-22 08:00N 39°34' E 002°38'0 0.0
2017-May-22 07:31N 39°34' E 002°38'0 0.0
2017-May-22 07:00N 39°34' E 002°38'0 0.0
2017-May-22 06:31N 39°34' E 002°38'0 0.0
2017-May-22 06:01N 39°34' E 002°38'0 0.0
2017-May-22 05:31N 39°34' E 002°38'0 0.0
2017-May-22 05:01N 39°34' E 002°38'0 0.0
2017-May-22 04:30N 39°34' E 002°38'0 0.0
2017-May-22 04:00N 39°34' E 002°38'0 0.0
2017-May-22 03:30N 39°34' E 002°38'0 0.0
2017-May-22 03:00N 39°34' E 002°38'0 0.0
2017-May-22 02:31N 39°34' E 002°38'0 0.0
2017-May-22 02:00N 39°34' E 002°38'0 0.0
2017-May-22 01:30N 39°34' E 002°38'0 0.0
2017-May-22 01:00N 39°34' E 002°38'0 0.0
2017-May-22 00:30N 39°34' E 002°38'0 0.0
2017-May-22 00:00N 39°34' E 002°38'0 0.0
2017-May-21 23:30N 39°34' E 002°38'0 0.0
2017-May-21 23:00N 39°34' E 002°38'0 0.0
2017-May-21 22:30N 39°34' E 002°38'0 0.0
2017-May-21 22:00N 39°34' E 002°38'0 0.0
2017-May-21 21:30N 39°34' E 002°38'0 0.0
2017-May-21 21:01N 39°34' E 002°38'0 0.0
2017-May-21 20:30N 39°34' E 002°38'0 0.0
2017-May-21 20:00N 39°34' E 002°38'0 0.0
2017-May-21 19:30N 39°34' E 002°38'0 0.0
2017-May-21 19:00N 39°34' E 002°38'0 0.0
2017-May-21 18:30N 39°34' E 002°38'0 0.0
2017-May-21 18:00N 39°34' E 002°38'1 1.7
2017-May-21 17:30N 39°33' E 002°39'612.6
2017-May-21 17:00N 39°28' E 002°34'815.1
2017-May-21 16:30N 39°22' E 002°28'815.4
2017-May-21 16:00N 39°16' E 002°21'815.5
2017-May-21 15:30N 39°10' E 002°15'815.2
2017-May-21 15:00N 39°05' E 002°09'815.4
2017-May-21 14:30N 38°59' E 002°02'1615.5
2017-May-21 13:30N 38°47' E 001°48'815.3
2017-May-21 12:59N 38°41' E 001°42'815.4
2017-May-21 12:30N 38°36' E 001°35'815.6
2017-May-21 11:59N 38°31' E 001°27'915.7
2017-May-21 11:26N 38°26' E 001°18'715.9
2017-May-21 11:00N 38°22' E 001°11'1615.6
2017-May-21 09:59N 38°13' E 000°54'915.4
2017-May-21 09:25N 38°08' E 000°45'5814.8
2017-May-21 05:31N 37°33' W 000°13'1913.7
2017-May-21 04:07N 37°22' W 000°33'213.4
2017-May-21 03:58N 37°21' W 000°35'613.4
2017-May-21 03:30N 37°17' W 000°41'10313.2
2017-May-20 19:44N 36°21' W 002°29'13314.4
2017-May-20 10:33N 36°06' W 005°12'114.7
2017-May-20 10:30N 36°06' W 005°13'713.9
2017-May-20 10:00N 36°05' W 005°21'4 1.0
2017-May-20 06:03N 36°09' W 005°22'0 0.4
2017-May-20 06:00N 36°09' W 005°22'0 0.0
2017-May-20 05:30N 36°09' W 005°22'0 0.0
2017-May-20 05:00N 36°09' W 005°22'0 0.0
2017-May-20 04:30N 36°09' W 005°22'0 0.0
2017-May-20 04:00N 36°09' W 005°22'0 0.0
2017-May-20 03:30N 36°09' W 005°22'0 0.0
2017-May-20 03:00N 36°09' W 005°22'0 0.0
2017-May-20 02:30N 36°09' W 005°22'0 0.0
2017-May-20 02:00N 36°09' W 005°22'0 0.0
2017-May-20 01:30N 36°09' W 005°22'0 0.0
2017-May-20 01:00N 36°09' W 005°22'0 0.0
2017-May-20 00:30N 36°09' W 005°22'0 0.0
2017-May-20 00:00N 36°09' W 005°22'0 0.0
2017-May-19 23:30N 36°09' W 005°22'0 0.0
2017-May-19 23:00N 36°09' W 005°22'0 0.0
2017-May-19 22:30N 36°09' W 005°22'0 0.0
2017-May-19 22:00N 36°09' W 005°22'0 0.0
2017-May-19 21:30N 36°09' W 005°22'0 0.0
2017-May-19 21:00N 36°09' W 005°22'0 0.0
2017-May-19 20:30N 36°09' W 005°22'0 0.0
2017-May-19 20:00N 36°09' W 005°22'0 0.0
2017-May-19 19:30N 36°09' W 005°22'0 0.0
2017-May-19 18:58N 36°09' W 005°22'0 0.0
2017-May-19 15:17N 36°09' W 005°22'0 0.0
2017-May-19 10:26N 36°09' W 005°22'0 0.0
2017-May-19 10:00N 36°09' W 005°22'0 0.0
2017-May-19 09:30N 36°09' W 005°22'0 0.0
2017-May-19 09:00N 36°09' W 005°22'0 0.0
2017-May-19 08:30N 36°09' W 005°22'0 0.0
2017-May-19 08:00N 36°09' W 005°22'0 0.0
2017-May-19 07:30N 36°09' W 005°22'0 0.0
2017-May-19 07:00N 36°09' W 005°22'0 0.0
2017-May-19 06:30N 36°09' W 005°22'0 0.0
2017-May-19 05:58N 36°09' W 005°22'0 0.0
2017-May-19 05:30N 36°09' W 005°22'0 0.0
2017-May-19 05:00N 36°09' W 005°22'2 3.7
2017-May-19 04:30N 36°07' W 005°23'2 3.7
2017-May-19 04:00N 36°05' W 005°22'4 8.9
2017-May-19 03:30N 36°01' W 005°23'612.6
2017-May-19 03:00N 35°58' W 005°29'25611.9
2017-May-18 05:25N 38°18' W 009°58'814.9
2017-May-18 04:53N 38°26' W 010°00'715.3
2017-May-18 04:27N 38°33' W 010°02'714.9
2017-May-18 04:00N 38°39' W 010°04'715.3
2017-May-18 03:30N 38°47' W 010°05'815.2
2017-May-18 03:00N 38°54' W 010°04'815.3
2017-May-18 02:30N 39°02' W 010°01'815.4
2017-May-18 02:00N 39°09' W 009°59'815.4
2017-May-18 01:30N 39°17' W 009°56'  

Dump ship's entire track history